createdAt,value
2023-01-08T00:00:26.902Z,23.36
2023-01-08T00:00:58.471Z,23.36
2023-01-08T00:01:29.912Z,23.38
2023-01-08T00:02:01.410Z,23.35
2023-01-08T00:02:32.844Z,23.37
2023-01-08T00:03:04.431Z,23.39
2023-01-08T00:03:36.153Z,23.36
2023-01-08T00:04:07.721Z,23.39
2023-01-08T00:04:39.217Z,23.35
2023-01-08T00:05:10.759Z,23.34
2023-01-08T00:05:42.188Z,23.38
2023-01-08T00:06:13.661Z,23.36
2023-01-08T00:06:45.049Z,23.38
2023-01-08T00:07:16.452Z,23.39
2023-01-08T00:07:47.865Z,23.39
2023-01-08T00:08:19.303Z,23.38
2023-01-08T00:08:50.729Z,23.40
2023-01-08T00:09:22.157Z,23.40
2023-01-08T00:09:53.583Z,23.41
2023-01-08T00:10:25.084Z,23.39
2023-01-08T00:10:56.509Z,23.36
2023-01-08T00:11:27.984Z,23.40
2023-01-08T00:11:59.435Z,23.39
2023-01-08T00:12:30.869Z,23.37
2023-01-08T00:13:02.279Z,23.33
2023-01-08T00:13:33.750Z,23.39
2023-01-08T00:14:05.234Z,23.38
2023-01-08T00:14:36.632Z,23.37
2023-01-08T00:15:08.114Z,23.34
2023-01-08T00:15:39.598Z,23.35
2023-01-08T00:16:11.050Z,23.39
2023-01-08T00:16:42.675Z,23.37
2023-01-08T00:17:14.249Z,23.37
2023-01-08T00:17:45.657Z,23.37
2023-01-08T00:18:17.087Z,23.34
2023-01-08T00:18:48.484Z,23.35
2023-01-08T00:19:19.884Z,23.36
2023-01-08T00:19:51.334Z,23.35
2023-01-08T00:20:22.783Z,23.37
2023-01-08T00:20:54.239Z,23.33
2023-01-08T00:21:25.683Z,23.36
2023-01-08T00:21:57.144Z,23.38
2023-01-08T00:22:28.559Z,23.37
2023-01-08T00:22:59.946Z,23.37
2023-01-08T00:23:31.351Z,23.39
2023-01-08T00:24:02.833Z,23.37
2023-01-08T00:24:34.257Z,23.39
2023-01-08T00:25:05.808Z,23.37
2023-01-08T00:25:37.233Z,23.37
2023-01-08T00:26:08.734Z,23.42
2023-01-08T00:26:40.179Z,23.38
2023-01-08T00:27:11.655Z,23.39
2023-01-08T00:27:43.025Z,23.36
2023-01-08T00:28:14.468Z,23.36
2023-01-08T00:28:45.900Z,23.39
2023-01-08T00:29:17.312Z,23.41
2023-01-08T00:29:48.718Z,23.40
2023-01-08T00:30:20.223Z,23.37
2023-01-08T00:30:51.768Z,23.40
2023-01-08T00:31:23.257Z,23.38
2023-01-08T00:31:54.697Z,23.39
2023-01-08T00:32:26.086Z,23.41
2023-01-08T00:32:57.531Z,23.36
2023-01-08T00:33:28.958Z,23.40
2023-01-08T00:34:00.390Z,23.39
2023-01-08T00:34:31.811Z,23.36
2023-01-08T00:35:03.273Z,23.38
2023-01-08T00:35:34.746Z,23.33
2023-01-08T00:36:06.169Z,23.35
2023-01-08T00:36:37.575Z,23.34
2023-01-08T00:37:08.982Z,23.36
2023-01-08T00:37:40.393Z,23.37
2023-01-08T00:38:11.795Z,23.36
2023-01-08T00:38:43.274Z,23.35
2023-01-08T00:39:14.837Z,23.34
2023-01-08T00:39:46.266Z,23.32
2023-01-08T00:40:17.681Z,23.32
2023-01-08T00:40:49.137Z,23.32
2023-01-08T00:41:20.603Z,23.29
2023-01-08T00:41:52.071Z,23.31
2023-01-08T00:42:23.546Z,23.32
2023-01-08T00:42:54.958Z,23.39
2023-01-08T00:43:26.469Z,23.40
2023-01-08T00:43:57.889Z,23.37
2023-01-08T00:44:29.326Z,23.34
2023-01-08T00:45:00.782Z,23.33
2023-01-08T00:45:32.252Z,23.32
2023-01-08T00:46:03.820Z,23.31
2023-01-08T00:46:35.284Z,23.31
2023-01-08T00:47:06.698Z,23.33
2023-01-08T00:47:38.123Z,23.34
2023-01-08T00:48:09.552Z,23.33
2023-01-08T00:48:40.979Z,23.30
2023-01-08T00:49:12.380Z,23.33
2023-01-08T00:49:43.784Z,23.33
2023-01-08T00:50:15.180Z,23.32
2023-01-08T00:50:46.606Z,23.32
2023-01-08T00:51:18.120Z,23.32
2023-01-08T00:51:49.513Z,23.32
2023-01-08T00:52:20.921Z,23.31
2023-01-08T00:52:52.401Z,23.31
2023-01-08T00:53:23.876Z,23.30
2023-01-08T00:53:55.356Z,23.29
2023-01-08T00:54:26.780Z,23.36
2023-01-08T00:54:58.227Z,23.33
2023-01-08T00:55:29.625Z,23.31
2023-01-08T00:56:01.022Z,23.30
2023-01-08T00:56:32.484Z,23.33
2023-01-08T00:57:03.893Z,23.31
2023-01-08T00:57:35.309Z,23.30
2023-01-08T00:58:06.769Z,23.33
2023-01-08T00:58:38.218Z,23.33
2023-01-08T00:59:09.710Z,23.34
2023-01-08T00:59:41.121Z,23.34
2023-01-08T01:00:12.515Z,23.33
2023-01-08T01:00:43.932Z,23.37
2023-01-08T01:01:15.444Z,23.36
2023-01-08T01:01:47.104Z,23.42
2023-01-08T01:02:18.739Z,23.40
2023-01-08T01:02:50.191Z,23.38
2023-01-08T01:03:21.639Z,23.37
2023-01-08T01:03:53.174Z,23.34
2023-01-08T01:04:24.682Z,23.34
2023-01-08T01:04:56.097Z,23.35
2023-01-08T01:05:27.495Z,23.34
2023-01-08T01:05:59.068Z,23.34
2023-01-08T01:06:30.476Z,23.34
2023-01-08T01:07:01.999Z,23.36
2023-01-08T01:07:33.468Z,23.38
2023-01-08T01:08:04.954Z,23.38
2023-01-08T01:08:36.397Z,23.39
2023-01-08T01:09:07.804Z,23.36
2023-01-08T01:09:39.247Z,23.37
2023-01-08T01:10:10.680Z,23.35
2023-01-08T01:10:42.228Z,23.39
2023-01-08T01:11:13.683Z,23.35
2023-01-08T01:11:45.162Z,23.35
2023-01-08T01:12:16.566Z,23.35
2023-01-08T01:12:47.949Z,23.34
2023-01-08T01:13:19.391Z,23.34
2023-01-08T01:13:50.793Z,23.35
2023-01-08T01:14:22.230Z,23.40
2023-01-08T01:14:53.653Z,23.35
2023-01-08T01:15:25.064Z,23.33
2023-01-08T01:15:56.550Z,23.33
2023-01-08T01:16:27.948Z,23.35
2023-01-08T01:16:59.600Z,23.38
2023-01-08T01:17:31.035Z,23.38
2023-01-08T01:18:02.521Z,23.38
2023-01-08T01:18:33.905Z,23.35
2023-01-08T01:19:05.336Z,23.37
2023-01-08T01:19:36.787Z,23.38
2023-01-08T01:20:08.222Z,23.38
2023-01-08T01:20:39.640Z,23.40
2023-01-08T01:21:11.108Z,23.41
2023-01-08T01:21:42.561Z,23.40
2023-01-08T01:22:14.007Z,23.38
2023-01-08T01:22:45.519Z,23.38
2023-01-08T01:23:16.945Z,23.37
2023-01-08T01:23:48.354Z,23.36
2023-01-08T01:24:19.813Z,23.36
2023-01-08T01:24:51.226Z,23.38
2023-01-08T01:25:22.673Z,23.36
2023-01-08T01:25:54.093Z,23.35
2023-01-08T01:26:25.553Z,23.34
2023-01-08T01:26:57.086Z,23.38
2023-01-08T01:27:28.585Z,23.38
2023-01-08T01:28:00.047Z,23.34
2023-01-08T01:28:31.471Z,23.36
2023-01-08T01:29:02.896Z,23.33
2023-01-08T01:29:34.432Z,23.33
2023-01-08T01:30:05.873Z,23.32
2023-01-08T01:30:37.396Z,23.36
2023-01-08T01:31:08.895Z,23.38
2023-01-08T01:31:40.427Z,23.39
2023-01-08T01:32:11.846Z,23.36
2023-01-08T01:32:43.298Z,23.36
2023-01-08T01:33:14.702Z,23.36
2023-01-08T01:33:46.091Z,23.39
2023-01-08T01:34:17.512Z,23.37
2023-01-08T01:34:48.922Z,23.38
2023-01-08T01:35:20.409Z,23.37
2023-01-08T01:35:51.820Z,23.35
2023-01-08T01:36:23.270Z,23.35
2023-01-08T01:36:54.789Z,23.36
2023-01-08T01:37:26.275Z,23.40
2023-01-08T01:37:57.706Z,23.38
2023-01-08T01:38:29.117Z,23.35
2023-01-08T01:39:00.642Z,23.37
2023-01-08T01:39:32.089Z,23.37
2023-01-08T01:40:03.569Z,23.36
2023-01-08T01:40:34.975Z,23.34
2023-01-08T01:41:06.383Z,23.35
2023-01-08T01:41:37.887Z,23.36
2023-01-08T01:42:09.366Z,23.33
2023-01-08T01:42:40.804Z,23.33
2023-01-08T01:43:12.235Z,23.36
2023-01-08T01:43:43.683Z,23.34
2023-01-08T01:44:15.141Z,23.35
2023-01-08T01:44:46.527Z,23.37
2023-01-08T01:45:17.982Z,23.38
2023-01-08T01:45:49.415Z,23.35
2023-01-08T01:46:20.967Z,23.35
2023-01-08T01:46:52.452Z,23.36
2023-01-08T01:47:24.005Z,23.36
2023-01-08T01:47:55.437Z,23.35
2023-01-08T01:48:26.881Z,23.34
2023-01-08T01:48:58.351Z,23.36
2023-01-08T01:49:29.761Z,23.36
2023-01-08T01:50:01.286Z,23.32
2023-01-08T01:50:32.702Z,23.36
2023-01-08T01:51:04.180Z,23.33
2023-01-08T01:51:35.587Z,23.34
2023-01-08T01:52:06.967Z,23.32
2023-01-08T01:52:38.346Z,23.34
2023-01-08T01:53:09.783Z,23.35
2023-01-08T01:53:41.191Z,23.33
2023-01-08T01:54:12.565Z,23.35
2023-01-08T01:54:44.004Z,23.38
2023-01-08T01:55:15.476Z,23.37
2023-01-08T01:55:46.971Z,23.37
2023-01-08T01:56:18.486Z,23.37
2023-01-08T01:56:49.898Z,23.37
2023-01-08T01:57:21.288Z,23.34
2023-01-08T01:57:52.735Z,23.36
2023-01-08T01:58:24.197Z,23.34
2023-01-08T01:58:55.667Z,23.36
2023-01-08T01:59:27.095Z,23.35
2023-01-08T01:59:58.553Z,23.35
2023-01-08T02:00:30.039Z,23.32
2023-01-08T02:01:01.615Z,23.36
2023-01-08T02:01:33.273Z,23.36
2023-01-08T02:02:05.043Z,23.39
2023-01-08T02:02:36.617Z,23.36
2023-01-08T02:03:08.038Z,23.37
2023-01-08T02:03:39.502Z,23.37
2023-01-08T02:04:11.002Z,23.34
2023-01-08T02:04:42.405Z,23.36
2023-01-08T02:05:13.813Z,23.35
2023-01-08T02:05:45.309Z,23.38
2023-01-08T02:06:16.714Z,23.39
2023-01-08T02:06:48.147Z,23.36
2023-01-08T02:07:19.593Z,23.39
2023-01-08T02:07:50.995Z,23.38
2023-01-08T02:08:22.413Z,23.39
2023-01-08T02:08:53.819Z,23.39
2023-01-08T02:09:25.219Z,23.42
2023-01-08T02:09:56.662Z,23.40
2023-01-08T02:10:28.100Z,23.40
2023-01-08T02:10:59.576Z,23.36
2023-01-08T02:11:30.978Z,23.40
2023-01-08T02:12:02.404Z,23.38
2023-01-08T02:12:33.826Z,23.34
2023-01-08T02:13:05.298Z,23.37
2023-01-08T02:13:36.705Z,23.35
2023-01-08T02:14:08.300Z,23.38
2023-01-08T02:14:39.724Z,23.37
2023-01-08T02:15:11.125Z,23.36
2023-01-08T02:15:42.534Z,23.38
2023-01-08T02:16:14.084Z,23.39
2023-01-08T02:16:45.530Z,23.42
2023-01-08T02:17:16.929Z,23.39
2023-01-08T02:17:48.347Z,23.38
2023-01-08T02:18:19.783Z,23.40
2023-01-08T02:18:51.187Z,23.40
2023-01-08T02:19:22.629Z,23.36
2023-01-08T02:19:54.085Z,23.38
2023-01-08T02:20:25.527Z,23.39
2023-01-08T02:20:56.914Z,23.40
2023-01-08T02:21:28.347Z,23.41
2023-01-08T02:21:59.854Z,23.38
2023-01-08T02:22:31.273Z,23.39
2023-01-08T02:23:02.696Z,23.40
2023-01-08T02:23:34.130Z,23.39
2023-01-08T02:24:05.557Z,23.37
2023-01-08T02:24:36.935Z,23.37
2023-01-08T02:25:08.330Z,23.35
2023-01-08T02:25:39.891Z,23.34
2023-01-08T02:26:11.388Z,23.36
2023-01-08T02:26:42.801Z,23.34
2023-01-08T02:27:14.219Z,23.36
2023-01-08T02:27:45.599Z,23.37
2023-01-08T02:28:17.017Z,23.37
2023-01-08T02:28:48.407Z,23.37
2023-01-08T02:29:19.861Z,23.37
2023-01-08T02:29:51.296Z,23.38
2023-01-08T02:30:22.723Z,23.41
2023-01-08T02:30:54.187Z,23.39
2023-01-08T02:31:25.692Z,23.36
2023-01-08T02:31:57.105Z,23.39
2023-01-08T02:32:28.549Z,23.35
2023-01-08T02:32:59.921Z,23.34
2023-01-08T02:33:31.392Z,23.36
2023-01-08T02:34:02.802Z,23.34
2023-01-08T02:34:34.268Z,23.36
2023-01-08T02:35:05.717Z,23.36
2023-01-08T02:35:37.137Z,23.38
2023-01-08T02:36:08.572Z,23.38
2023-01-08T02:36:40.133Z,23.37
2023-01-08T02:37:11.678Z,23.37
2023-01-08T02:37:43.074Z,23.33
2023-01-08T02:38:14.599Z,23.37
2023-01-08T02:38:46.049Z,23.33
2023-01-08T02:39:17.487Z,23.34
2023-01-08T02:39:48.963Z,23.32
2023-01-08T02:40:20.422Z,23.31
2023-01-08T02:40:51.917Z,23.34
2023-01-08T02:41:23.346Z,23.35
2023-01-08T02:41:54.868Z,23.36
2023-01-08T02:42:26.344Z,23.32
2023-01-08T02:42:57.750Z,23.34
2023-01-08T02:43:29.181Z,23.34
2023-01-08T02:44:00.569Z,23.33
2023-01-08T02:44:31.988Z,23.32
2023-01-08T02:45:03.643Z,23.39
2023-01-08T02:45:35.082Z,23.37
2023-01-08T02:46:06.583Z,23.42
2023-01-08T02:46:38.119Z,23.37
2023-01-08T02:47:09.628Z,23.37
2023-01-08T02:47:41.045Z,23.36
2023-01-08T02:48:12.484Z,23.38
2023-01-08T02:48:43.922Z,23.38
2023-01-08T02:49:15.406Z,23.38
2023-01-08T02:49:46.803Z,23.38
2023-01-08T02:50:18.265Z,23.40
2023-01-08T02:50:49.665Z,23.38
2023-01-08T02:51:21.085Z,23.38
2023-01-08T02:51:52.601Z,23.39
2023-01-08T02:52:24.032Z,23.39
2023-01-08T02:52:55.517Z,23.40
2023-01-08T02:53:26.940Z,23.41
2023-01-08T02:53:58.357Z,23.37
2023-01-08T02:54:29.749Z,23.37
2023-01-08T02:55:01.171Z,23.37
2023-01-08T02:55:32.571Z,23.37
2023-01-08T02:56:03.951Z,23.37
2023-01-08T02:56:35.403Z,23.39
2023-01-08T02:57:06.830Z,23.41
2023-01-08T02:57:38.274Z,23.41
2023-01-08T02:58:09.843Z,23.41
2023-01-08T02:58:41.261Z,23.37
2023-01-08T02:59:12.739Z,23.35
2023-01-08T02:59:44.163Z,23.37
2023-01-08T03:00:15.586Z,23.39
2023-01-08T03:00:47.051Z,23.40
2023-01-08T03:01:18.549Z,23.37
2023-01-08T03:01:50.132Z,23.35
2023-01-08T03:02:21.705Z,23.37
2023-01-08T03:02:53.212Z,23.36
2023-01-08T03:03:24.651Z,23.38
2023-01-08T03:03:56.221Z,23.39
2023-01-08T03:04:27.751Z,23.42
2023-01-08T03:04:59.222Z,23.38
2023-01-08T03:05:30.617Z,23.42
2023-01-08T03:06:02.056Z,23.42
2023-01-08T03:06:33.454Z,23.39
2023-01-08T03:07:04.932Z,23.43
2023-01-08T03:07:36.360Z,23.39
2023-01-08T03:08:07.794Z,23.38
2023-01-08T03:08:39.220Z,23.39
2023-01-08T03:09:10.648Z,23.40
2023-01-08T03:09:42.051Z,23.38
2023-01-08T03:10:13.572Z,23.40
2023-01-08T03:10:45.062Z,23.39
2023-01-08T03:11:16.528Z,23.36
2023-01-08T03:11:47.937Z,23.39
2023-01-08T03:12:19.437Z,23.41
2023-01-08T03:12:50.912Z,23.41
2023-01-08T03:13:22.314Z,23.36
2023-01-08T03:13:53.827Z,23.39
2023-01-08T03:14:25.257Z,23.39
2023-01-08T03:14:56.650Z,23.38
2023-01-08T03:15:28.097Z,23.39
2023-01-08T03:15:59.559Z,23.38
2023-01-08T03:16:31.115Z,23.39
2023-01-08T03:17:02.585Z,23.42
2023-01-08T03:17:34.087Z,23.40
2023-01-08T03:18:05.566Z,23.40
2023-01-08T03:18:37.008Z,23.38
2023-01-08T03:19:08.400Z,23.40
2023-01-08T03:19:39.804Z,23.38
2023-01-08T03:20:11.239Z,23.40
2023-01-08T03:20:42.649Z,23.43
2023-01-08T03:21:14.117Z,23.40
2023-01-08T03:21:45.551Z,23.38
2023-01-08T03:22:16.964Z,23.39
2023-01-08T03:22:48.514Z,23.40
2023-01-08T03:23:19.961Z,23.36
2023-01-08T03:23:51.415Z,23.40
2023-01-08T03:24:22.829Z,23.37
2023-01-08T03:24:54.244Z,23.38
2023-01-08T03:25:25.673Z,23.41
2023-01-08T03:25:57.069Z,23.40
2023-01-08T03:26:28.460Z,23.41
2023-01-08T03:26:59.852Z,23.43
2023-01-08T03:27:31.271Z,23.41
2023-01-08T03:28:02.710Z,23.42
2023-01-08T03:28:34.132Z,23.40
2023-01-08T03:29:05.559Z,23.41
2023-01-08T03:29:37.057Z,23.40
2023-01-08T03:30:08.543Z,23.41
2023-01-08T03:30:39.997Z,23.38
2023-01-08T03:31:11.541Z,23.40
2023-01-08T03:31:43.012Z,23.43
2023-01-08T03:32:14.502Z,23.39
2023-01-08T03:32:45.968Z,23.39
2023-01-08T03:33:17.377Z,23.39
2023-01-08T03:33:48.808Z,23.37
2023-01-08T03:34:20.263Z,23.38
2023-01-08T03:34:51.726Z,23.36
2023-01-08T03:35:23.162Z,23.40
2023-01-08T03:35:54.592Z,23.44
2023-01-08T03:36:26.079Z,23.41
2023-01-08T03:36:57.581Z,23.39
2023-01-08T03:37:29.065Z,23.37
2023-01-08T03:38:00.487Z,23.38
2023-01-08T03:38:31.908Z,23.37
2023-01-08T03:39:03.307Z,23.37
2023-01-08T03:39:34.800Z,23.39
2023-01-08T03:40:06.227Z,23.39
2023-01-08T03:40:37.634Z,23.39
2023-01-08T03:41:09.063Z,23.40
2023-01-08T03:41:40.532Z,23.43
2023-01-08T03:42:11.947Z,23.39
2023-01-08T03:42:43.424Z,23.36
2023-01-08T03:43:14.840Z,23.41
2023-01-08T03:43:46.267Z,23.39
2023-01-08T03:44:17.677Z,23.40
2023-01-08T03:44:49.139Z,23.43
2023-01-08T03:45:20.600Z,23.37
2023-01-08T03:45:52.021Z,23.37
2023-01-08T03:46:23.494Z,23.40
2023-01-08T03:46:54.904Z,23.37
2023-01-08T03:47:26.399Z,23.42
2023-01-08T03:47:57.841Z,23.41
2023-01-08T03:48:29.267Z,23.41
2023-01-08T03:49:00.688Z,23.39
2023-01-08T03:49:32.131Z,23.41
2023-01-08T03:50:03.598Z,23.41
2023-01-08T03:50:35.070Z,23.42
2023-01-08T03:51:06.520Z,23.40
2023-01-08T03:51:37.994Z,23.38
2023-01-08T03:52:09.444Z,23.41
2023-01-08T03:52:40.992Z,23.39
2023-01-08T03:53:12.478Z,23.42
2023-01-08T03:53:43.916Z,23.40
2023-01-08T03:54:15.350Z,23.38
2023-01-08T03:54:46.853Z,23.39
2023-01-08T03:55:18.284Z,23.40
2023-01-08T03:55:49.723Z,23.39
2023-01-08T03:56:21.164Z,23.44
2023-01-08T03:56:52.591Z,23.43
2023-01-08T03:57:23.999Z,23.40
2023-01-08T03:57:55.478Z,23.40
2023-01-08T03:58:26.923Z,23.39
2023-01-08T03:58:58.405Z,23.37
2023-01-08T03:59:29.837Z,23.38
2023-01-08T04:00:01.240Z,23.40
2023-01-08T04:00:32.651Z,23.42
2023-01-08T04:01:04.075Z,23.39
2023-01-08T04:01:35.703Z,23.40
2023-01-08T04:02:07.230Z,23.41
2023-01-08T04:02:38.928Z,23.37
2023-01-08T04:03:10.525Z,23.40
2023-01-08T04:03:41.989Z,23.37
2023-01-08T04:04:13.455Z,23.37
2023-01-08T04:04:45.021Z,23.35
2023-01-08T04:05:16.482Z,23.37
2023-01-08T04:05:47.940Z,23.39
2023-01-08T04:06:19.361Z,23.41
2023-01-08T04:06:50.844Z,23.36
2023-01-08T04:07:22.310Z,23.36
2023-01-08T04:07:53.843Z,23.37
2023-01-08T04:08:25.301Z,23.35
2023-01-08T04:08:56.697Z,23.36
2023-01-08T04:09:28.113Z,23.37
2023-01-08T04:09:59.540Z,23.34
2023-01-08T04:10:30.944Z,23.33
2023-01-08T04:11:02.317Z,23.33
2023-01-08T04:11:33.761Z,23.35
2023-01-08T04:12:05.225Z,23.35
2023-01-08T04:12:36.660Z,23.35
2023-01-08T04:13:08.264Z,23.37
2023-01-08T04:13:39.657Z,23.36
2023-01-08T04:14:11.120Z,23.34
2023-01-08T04:14:42.519Z,23.32
2023-01-08T04:15:14.182Z,23.34
2023-01-08T04:15:45.628Z,23.38
2023-01-08T04:16:17.147Z,23.32
2023-01-08T04:16:48.672Z,23.37
2023-01-08T04:17:20.089Z,23.36
2023-01-08T04:17:51.559Z,23.35
2023-01-08T04:18:23.020Z,23.33
2023-01-08T04:18:54.471Z,23.37
2023-01-08T04:19:25.907Z,23.36
2023-01-08T04:19:57.328Z,23.32
2023-01-08T04:20:28.785Z,23.33
2023-01-08T04:21:00.156Z,23.34
2023-01-08T04:21:31.589Z,23.32
2023-01-08T04:22:03.022Z,23.33
2023-01-08T04:22:34.465Z,23.38
2023-01-08T04:23:05.889Z,23.34
2023-01-08T04:23:37.383Z,23.39
2023-01-08T04:24:08.861Z,23.36
2023-01-08T04:24:40.313Z,23.34
2023-01-08T04:25:11.734Z,23.33
2023-01-08T04:25:43.215Z,23.33
2023-01-08T04:26:14.638Z,23.34
2023-01-08T04:26:46.125Z,23.32
2023-01-08T04:27:17.533Z,23.31
2023-01-08T04:27:49.009Z,23.33
2023-01-08T04:28:20.409Z,23.29
2023-01-08T04:28:51.905Z,23.32
2023-01-08T04:29:23.327Z,23.30
2023-01-08T04:29:54.761Z,23.29
2023-01-08T04:30:26.206Z,23.32
2023-01-08T04:30:57.630Z,23.31
2023-01-08T04:31:29.104Z,23.32
2023-01-08T04:32:00.571Z,23.33
2023-01-08T04:32:31.983Z,23.32
2023-01-08T04:33:03.402Z,23.33
2023-01-08T04:33:34.807Z,23.32
2023-01-08T04:34:06.286Z,23.32
2023-01-08T04:34:37.681Z,23.34
2023-01-08T04:35:09.060Z,23.31
2023-01-08T04:35:40.544Z,23.34
2023-01-08T04:36:11.966Z,23.32
2023-01-08T04:36:43.373Z,23.32
2023-01-08T04:37:14.919Z,23.35
2023-01-08T04:37:46.417Z,23.35
2023-01-08T04:38:17.806Z,23.36
2023-01-08T04:38:49.181Z,23.34
2023-01-08T04:39:20.575Z,23.32
2023-01-08T04:39:51.999Z,23.33
2023-01-08T04:40:23.429Z,23.33
2023-01-08T04:40:54.845Z,23.31
2023-01-08T04:41:26.252Z,23.33
2023-01-08T04:41:57.729Z,23.34
2023-01-08T04:42:29.131Z,23.33
2023-01-08T04:43:00.720Z,23.30
2023-01-08T04:43:32.141Z,23.32
2023-01-08T04:44:03.516Z,23.30
2023-01-08T04:44:34.995Z,23.33
2023-01-08T04:45:06.431Z,23.31
2023-01-08T04:45:37.906Z,23.31
2023-01-08T04:46:09.376Z,23.31
2023-01-08T04:46:40.886Z,23.31
2023-01-08T04:47:12.354Z,23.33
2023-01-08T04:47:43.784Z,23.35
2023-01-08T04:48:15.337Z,23.33
2023-01-08T04:48:46.704Z,23.33
2023-01-08T04:49:18.144Z,23.32
2023-01-08T04:49:49.540Z,23.36
2023-01-08T04:50:20.980Z,23.32
2023-01-08T04:50:52.390Z,23.33
2023-01-08T04:51:23.847Z,23.31
2023-01-08T04:51:55.260Z,23.30
2023-01-08T04:52:26.679Z,23.34
2023-01-08T04:52:58.091Z,23.32
2023-01-08T04:53:29.642Z,23.30
2023-01-08T04:54:01.080Z,23.35
2023-01-08T04:54:32.556Z,23.33
2023-01-08T04:55:03.973Z,23.32
2023-01-08T04:55:35.403Z,23.29
2023-01-08T04:56:06.801Z,23.29
2023-01-08T04:56:38.261Z,23.29
2023-01-08T04:57:09.715Z,23.35
2023-01-08T04:57:41.127Z,23.31
2023-01-08T04:58:12.548Z,23.35
2023-01-08T04:58:44.095Z,23.35
2023-01-08T04:59:15.521Z,23.32
2023-01-08T04:59:46.989Z,23.31
2023-01-08T05:00:18.404Z,23.29
2023-01-08T05:00:49.852Z,23.31
2023-01-08T05:01:21.407Z,23.34
2023-01-08T05:01:53.085Z,23.33
2023-01-08T05:02:24.712Z,23.33
2023-01-08T05:02:56.284Z,23.31
2023-01-08T05:03:27.736Z,23.32
2023-01-08T05:03:59.293Z,23.34
2023-01-08T05:04:30.733Z,23.32
2023-01-08T05:05:02.187Z,23.34
2023-01-08T05:05:33.608Z,23.32
2023-01-08T05:06:05.076Z,23.31
2023-01-08T05:06:36.474Z,23.32
2023-01-08T05:07:07.920Z,23.30
2023-01-08T05:07:39.389Z,23.31
2023-01-08T05:08:10.772Z,23.30
2023-01-08T05:08:42.221Z,23.30
2023-01-08T05:09:13.686Z,23.31
2023-01-08T05:09:45.111Z,23.30
2023-01-08T05:10:16.545Z,23.30
2023-01-08T05:10:47.994Z,23.31
2023-01-08T05:11:19.444Z,23.33
2023-01-08T05:11:50.881Z,23.31
2023-01-08T05:12:22.358Z,23.31
2023-01-08T05:12:53.767Z,23.32
2023-01-08T05:13:25.153Z,23.31
2023-01-08T05:13:56.557Z,23.31
2023-01-08T05:14:28.014Z,23.31
2023-01-08T05:14:59.449Z,23.29
2023-01-08T05:15:31.020Z,23.33
2023-01-08T05:16:02.526Z,23.35
2023-01-08T05:16:34.008Z,23.32
2023-01-08T05:17:05.428Z,23.32
2023-01-08T05:17:36.923Z,23.29
2023-01-08T05:18:08.331Z,23.31
2023-01-08T05:18:39.760Z,23.30
2023-01-08T05:19:11.218Z,23.28
2023-01-08T05:19:42.650Z,23.29
2023-01-08T05:20:14.085Z,23.30
2023-01-08T05:20:45.578Z,23.31
2023-01-08T05:21:16.991Z,23.32
2023-01-08T05:21:48.430Z,23.31
2023-01-08T05:22:19.873Z,23.32
2023-01-08T05:22:51.342Z,23.34
2023-01-08T05:23:22.814Z,23.33
2023-01-08T05:23:54.281Z,23.31
2023-01-08T05:24:25.713Z,23.31
2023-01-08T05:24:57.144Z,23.29
2023-01-08T05:25:28.528Z,23.31
2023-01-08T05:26:00.020Z,23.31
2023-01-08T05:26:31.508Z,23.31
2023-01-08T05:27:02.941Z,23.29
2023-01-08T05:27:34.415Z,23.31
2023-01-08T05:28:05.835Z,23.34
2023-01-08T05:28:37.259Z,23.33
2023-01-08T05:29:08.696Z,23.33
2023-01-08T05:29:40.124Z,23.31
2023-01-08T05:30:11.538Z,23.33
2023-01-08T05:30:42.992Z,23.31
2023-01-08T05:31:14.529Z,23.32
2023-01-08T05:31:45.975Z,23.32
2023-01-08T05:32:17.424Z,23.34
2023-01-08T05:32:48.864Z,23.36
2023-01-08T05:33:20.313Z,23.35
2023-01-08T05:33:51.764Z,23.35
2023-01-08T05:34:23.215Z,23.32
2023-01-08T05:34:54.708Z,23.34
2023-01-08T05:35:26.140Z,23.36
2023-01-08T05:35:57.507Z,23.35
2023-01-08T05:36:29.173Z,23.35
2023-01-08T05:37:00.607Z,23.32
2023-01-08T05:37:32.084Z,23.31
2023-01-08T05:38:03.471Z,23.35
2023-01-08T05:38:35.000Z,23.35
2023-01-08T05:39:06.398Z,23.36
2023-01-08T05:39:37.815Z,23.37
2023-01-08T05:40:09.258Z,23.34
2023-01-08T05:40:40.741Z,23.34
2023-01-08T05:41:12.169Z,23.35
2023-01-08T05:41:43.643Z,23.32
2023-01-08T05:42:17.832Z,23.32
2023-01-08T05:42:49.287Z,23.34
2023-01-08T05:43:20.707Z,23.34
2023-01-08T05:43:52.197Z,23.35
2023-01-08T05:44:23.600Z,23.33
2023-01-08T05:44:55.050Z,23.35
2023-01-08T05:45:26.511Z,23.32
2023-01-08T05:45:57.995Z,23.32
2023-01-08T05:46:29.628Z,23.30
2023-01-08T05:47:01.141Z,23.30
2023-01-08T05:47:32.619Z,23.33
2023-01-08T05:48:04.244Z,23.34
2023-01-08T05:48:35.773Z,23.33
2023-01-08T05:49:07.160Z,23.37
2023-01-08T05:49:38.651Z,23.37
2023-01-08T05:50:10.156Z,23.34
2023-01-08T05:50:41.585Z,23.33
2023-01-08T05:51:12.974Z,23.33
2023-01-08T05:51:44.397Z,23.32
2023-01-08T05:52:15.940Z,23.31
2023-01-08T05:52:47.379Z,23.33
2023-01-08T05:53:18.755Z,23.35
2023-01-08T05:53:50.235Z,23.35
2023-01-08T05:54:21.679Z,23.37
2023-01-08T05:54:53.134Z,23.34
2023-01-08T05:55:24.538Z,23.29
2023-01-08T05:55:55.985Z,23.29
2023-01-08T05:56:27.407Z,23.31
2023-01-08T05:56:58.829Z,23.32
2023-01-08T05:57:30.321Z,23.32
2023-01-08T05:58:01.757Z,23.33
2023-01-08T05:58:33.206Z,23.31
2023-01-08T05:59:04.647Z,23.31
2023-01-08T05:59:36.073Z,23.31
2023-01-08T06:00:07.547Z,23.33
2023-01-08T06:00:38.955Z,23.33
2023-01-08T06:01:10.467Z,23.32
2023-01-08T06:01:41.961Z,23.30
2023-01-08T06:02:13.472Z,23.29
2023-01-08T06:02:45.000Z,23.29
2023-01-08T06:03:16.445Z,23.32
2023-01-08T06:03:47.908Z,23.31
2023-01-08T06:04:19.379Z,23.31
2023-01-08T06:04:50.846Z,23.29
2023-01-08T06:05:22.265Z,23.30
2023-01-08T06:05:53.743Z,23.28
2023-01-08T06:06:25.217Z,23.28
2023-01-08T06:06:56.673Z,23.26
2023-01-08T06:07:28.128Z,23.29
2023-01-08T06:07:59.652Z,23.32
2023-01-08T06:08:31.087Z,23.33
2023-01-08T06:09:02.491Z,23.32
2023-01-08T06:09:33.968Z,23.31
2023-01-08T06:10:05.403Z,23.32
2023-01-08T06:10:36.863Z,23.30
2023-01-08T06:11:08.282Z,23.31
2023-01-08T06:11:39.695Z,23.32
2023-01-08T06:12:11.066Z,23.33
2023-01-08T06:12:42.450Z,23.33
2023-01-08T06:13:13.932Z,23.30
2023-01-08T06:13:45.604Z,23.28
2023-01-08T06:14:17.049Z,23.28
2023-01-08T06:14:48.453Z,23.31
2023-01-08T06:15:19.908Z,23.29
2023-01-08T06:15:51.408Z,23.29
2023-01-08T06:16:22.930Z,23.28
2023-01-08T06:16:54.357Z,23.31
2023-01-08T06:17:25.784Z,23.34
2023-01-08T06:17:57.241Z,23.36
2023-01-08T06:18:28.775Z,23.34
2023-01-08T06:19:00.205Z,23.31
2023-01-08T06:19:31.601Z,23.33
2023-01-08T06:20:03.024Z,23.31
2023-01-08T06:20:34.537Z,23.32
2023-01-08T06:21:05.917Z,23.33
2023-01-08T06:21:37.346Z,23.31
2023-01-08T06:22:08.738Z,23.30
2023-01-08T06:22:40.203Z,23.31
2023-01-08T06:23:11.627Z,23.32
2023-01-08T06:23:43.085Z,23.32
2023-01-08T06:24:14.560Z,23.32
2023-01-08T06:24:45.970Z,23.33
2023-01-08T06:25:17.417Z,23.30
2023-01-08T06:25:48.801Z,23.29
2023-01-08T06:26:20.367Z,23.28
2023-01-08T06:26:51.860Z,23.30
2023-01-08T06:27:23.308Z,23.31
2023-01-08T06:27:54.735Z,23.32
2023-01-08T06:28:26.132Z,23.36
2023-01-08T06:28:57.609Z,23.35
2023-01-08T06:29:29.085Z,23.31
2023-01-08T06:30:00.506Z,23.29
2023-01-08T06:30:31.987Z,23.28
2023-01-08T06:31:03.520Z,23.28
2023-01-08T06:31:35.080Z,23.32
2023-01-08T06:32:06.497Z,23.30
2023-01-08T06:32:37.883Z,23.31
2023-01-08T06:33:09.288Z,23.32
2023-01-08T06:33:40.723Z,23.32
2023-01-08T06:34:12.240Z,23.31
2023-01-08T06:34:43.669Z,23.34
2023-01-08T06:35:15.072Z,23.35
2023-01-08T06:35:46.513Z,23.32
2023-01-08T06:36:17.894Z,23.33
2023-01-08T06:36:49.322Z,23.32
2023-01-08T06:37:20.741Z,23.32
2023-01-08T06:37:52.384Z,23.29
2023-01-08T06:38:23.814Z,23.28
2023-01-08T06:38:55.233Z,23.33
2023-01-08T06:39:26.708Z,23.37
2023-01-08T06:39:58.105Z,23.33
2023-01-08T06:40:29.554Z,23.34
2023-01-08T06:41:00.976Z,23.33
2023-01-08T06:41:32.472Z,23.32
2023-01-08T06:42:03.901Z,23.35
2023-01-08T06:42:35.386Z,23.36
2023-01-08T06:43:06.829Z,23.35
2023-01-08T06:43:38.267Z,23.33
2023-01-08T06:44:09.698Z,23.32
2023-01-08T06:44:41.182Z,23.33
2023-01-08T06:45:12.637Z,23.36